Ana Sayfa
METAR-TAF:

METAR-TAF

Havaalanları :

Rosh Pinna, İsrail

Enlem: 32-58-48N, Boylam: 035-34-12E, yükseklik: 281 m

Güncel hava durumu gözlemi

Rapor saat 14:50 UTC de 1 saat ve 2 dakika önce yapıldı.
Rüzgar kuzeydan 10 kt
Sıcaklık 31°C
Nem 31%
Basınç 1008 hPa
Görüş mesafesi 10 km veya daha fazla
1500 m altında bulut yok ve kümülonimbus yok

METAR: LLIB 261450Z 01010KT CAVOK 31/12 Q1008

Saat: 18:52 (15:52 UTC)

Tahmin

Rapor saat 11:08 UTC de 4 saat ve 44 dakika önce yapıldı.
Ayın 26'si saat 12 UTC'den ayın 27'si saat 12 UTC'ye kadar geçerli Tahmin
Rüzgar kuzey/kuzeybatıdan 10 kt
Görüş mesafesi 10 km veya daha fazla
1500 m altında bulut yok ve kümülonimbus yok
Dönüşüyor
ayın 26'si saat 19 UTC'den ayın 26'si saat 21 UTC'ye kadar
Rüzgar batı/güneybatıdan 4 kt
Dönüşüyor
ayın 27'si saat 05 UTC'den ayın 27'si saat 08 UTC'ye kadar
Rüzgar güney/güneydoğudan 6 kt

TAF: LLIB 261108Z 2612/2712 34010KT CAVOK BECMG 2619/2621 25004KT BECMG 2705/2708 16006KT TX34/2612Z TN17/2703Z

4.000'den fazla havaalanı için hava durumu gözlemleri ve tahminleri (METAR ve TAF raporları).

Kullanılabilir istasyonlar harita üzerinde sarı ve kırmızı noktalarla gösterilir.

İstasyonun adını görmek için fareyi noktanın üzerinde gezdirin.

Sonrasında hava gözlem ve tahminlerini görmek için tıklayın.

Haritayı değiştirmek için: yaklaştırmak için siyah artı işaretli yeşil düğmeye ve uzaklaştırmak için de eksi işaretli düğmeye hızla tıklayın; bitişik haritalar için yeşil okları kullanın.


METAR-TAF: